Glen Rover — CFN6090 — position and weather

sailwx.info

Track history (hours):
 
Tides and Currents Weather Stations Pressure Air Temp Water Temp Dewpoint Dewpoint Depression Visibility Wind Speed Wind Dir Waves Ship Positions

Glen Rover

Last reported at 2018-Feb-16 12:48 UTC. Time now 2018-Feb-21 13:16 UTC.
Position N 49°13' W 122°53'.

Type: Tug. MMSI: 316016916.

Date/timePositionNaut miles runAvg speedWind from/ knotsBaromVisibWave heightAir tempDewpointWater temp
2018-Feb-16 12:48N 49°13' W 122°53'3 7.9
2018-Feb-16 12:28N 49°10' W 122°56'3 7.2
2018-Feb-16 12:00N 49°09' W 123°00'83 2.1
2018-Feb-14 20:17N 49°57' W 124°45'5 8.1
2018-Feb-14 19:42N 50°01' W 124°49'2 7.5
2018-Feb-14 19:30N 50°03' W 124°50'4 7.3
2018-Feb-14 19:00N 50°06' W 124°53'4 7.5
2018-Feb-14 18:29N 50°10' W 124°54'4 8.2
2018-Feb-14 17:59N 50°13' W 124°58'4 7.2
2018-Feb-14 17:27N 50°17' W 124°58'5 0.4
2018-Feb-14 03:17N 50°22' W 124°58'3 7.5
2018-Feb-14 02:56N 50°20' W 125°00'3 6.4
2018-Feb-14 02:23N 50°17' W 125°02'3 7.1
2018-Feb-14 02:00N 50°14' W 125°01'4 7.6
2018-Feb-14 01:28N 50°10' W 125°03'4 7.4
2018-Feb-14 00:59N 50°07' W 125°05'4 8.0
2018-Feb-14 00:30N 50°03' W 125°06'6 3.9
2018-Feb-13 22:56N 50°04' W 125°16'2 5.0
2018-Feb-13 22:29N 50°05' W 125°18'0 0.1
2018-Feb-13 21:59N 50°05' W 125°18'0 0.0
2018-Feb-13 21:29N 50°05' W 125°18'0 0.0
2018-Feb-13 20:59N 50°05' W 125°18'0 0.0
2018-Feb-13 20:29N 50°05' W 125°18'0 0.0
2018-Feb-13 19:59N 50°05' W 125°18'0 0.1
2018-Feb-13 19:30N 50°05' W 125°18'93 5.2
2018-Feb-13 01:35N 50°54' W 127°24'1 6.9
2018-Feb-13 01:28N 50°55' W 127°24'3 5.9
2018-Feb-13 01:00N 50°57' W 127°28'3 6.1
2018-Feb-13 00:30N 50°58' W 127°32'3 6.4
2018-Feb-12 23:59N 51°01' W 127°35'1 0.1
2018-Feb-12 01:59N 50°60' W 127°35'5 9.8
2018-Feb-12 01:30N 50°57' W 127°29'510.2
2018-Feb-12 00:59N 50°54' W 127°22'89 2.5
2018-Feb-10 12:51N 50°08' W 125°21'411.8
2018-Feb-10 12:30N 50°05' W 125°17'  
Track history (hours):
 
Tides and Currents Weather Stations Pressure Air Temp Water Temp Dewpoint Dewpoint Depression Visibility Wind Speed Wind Dir Waves Ship Positions

Glen Rover

Last reported at 2018-Feb-16 12:48 UTC. Time now 2018-Feb-21 13:16 UTC.
Position N 49°13' W 122°53'.

Type: Tug. MMSI: 316016916.

Date/timePositionNaut miles runAvg speedWind from/ knotsBaromVisibWave heightAir tempDewpointWater temp
2018-Feb-16 12:48N 49°13' W 122°53'3 7.9
2018-Feb-16 12:28N 49°10' W 122°56'3 7.2
2018-Feb-16 12:00N 49°09' W 123°00'83 2.1
2018-Feb-14 20:17N 49°57' W 124°45'5 8.1
2018-Feb-14 19:42N 50°01' W 124°49'2 7.5
2018-Feb-14 19:30N 50°03' W 124°50'4 7.3
2018-Feb-14 19:00N 50°06' W 124°53'4 7.5
2018-Feb-14 18:29N 50°10' W 124°54'4 8.2
2018-Feb-14 17:59N 50°13' W 124°58'4 7.2
2018-Feb-14 17:27N 50°17' W 124°58'5 0.4
2018-Feb-14 03:17N 50°22' W 124°58'3 7.5
2018-Feb-14 02:56N 50°20' W 125°00'3 6.4
2018-Feb-14 02:23N 50°17' W 125°02'3 7.1
2018-Feb-14 02:00N 50°14' W 125°01'4 7.6
2018-Feb-14 01:28N 50°10' W 125°03'4 7.4
2018-Feb-14 00:59N 50°07' W 125°05'4 8.0
2018-Feb-14 00:30N 50°03' W 125°06'6 3.9
2018-Feb-13 22:56N 50°04' W 125°16'2 5.0
2018-Feb-13 22:29N 50°05' W 125°18'0 0.1
2018-Feb-13 21:59N 50°05' W 125°18'0 0.0
2018-Feb-13 21:29N 50°05' W 125°18'0 0.0
2018-Feb-13 20:59N 50°05' W 125°18'0 0.0
2018-Feb-13 20:29N 50°05' W 125°18'0 0.0
2018-Feb-13 19:59N 50°05' W 125°18'0 0.1
2018-Feb-13 19:30N 50°05' W 125°18'93 5.2
2018-Feb-13 01:35N 50°54' W 127°24'1 6.9
2018-Feb-13 01:28N 50°55' W 127°24'3 5.9
2018-Feb-13 01:00N 50°57' W 127°28'3 6.1
2018-Feb-13 00:30N 50°58' W 127°32'3 6.4
2018-Feb-12 23:59N 51°01' W 127°35'1 0.1
2018-Feb-12 01:59N 50°60' W 127°35'5 9.8
2018-Feb-12 01:30N 50°57' W 127°29'510.2
2018-Feb-12 00:59N 50°54' W 127°22'89 2.5
2018-Feb-10 12:51N 50°08' W 125°21'411.8
2018-Feb-10 12:30N 50°05' W 125°17'  

Dump ship's entire track history